Time;durP1;ratioP1;P1;durP2;ratioP2;P2;SDS_P1;SDS_P2;PMS_P1;PMS_P2;Temp;Humidity;BMP_temperature;BMP_pressure;BME280_temperature;BME280_humidity;BME280_pressure;Samples;Min_cycle;Max_cycle;Signal;HPM_P1;HPM_P2
2022/06/11 00:02:23;;;;;;;12.68;5.30;;;;;;;16.47;100.00;100882.88;1435673;98;21097;-92
2022/06/11 00:04:50;;;;;;;18.85;6.35;;;;;;;16.46;100.00;100880.44;1443175;97;21256;-93
2022/06/11 00:07:21;;;;;;;13.50;5.20;;;;;;;16.42;100.00;100879.41;1448832;94;21138;-92
2022/06/11 00:09:49;;;;;;;14.33;5.97;;;;;;;16.35;100.00;100882.46;1547924;91;21154;-93
2022/06/11 00:12:15;;;;;;;14.78;5.30;;;;;;;16.33;100.00;100878.69;1545737;91;21759;-92
2022/06/11 00:14:45;;;;;;;14.25;5.47;;;;;;;16.33;100.00;100871.89;1543742;91;21108;-93
2022/06/11 00:17:14;;;;;;;15.63;5.33;;;;;;;16.32;100.00;100873.53;1543489;92;21059;-93
2022/06/11 00:19:42;;;;;;;14.68;6.30;;;;;;;16.30;100.00;100874.39;1546876;92;21606;-92
2022/06/11 00:22:09;;;;;;;11.15;5.37;;;;;;;16.26;100.00;100871.42;1582673;87;21604;-93
2022/06/11 00:24:36;;;;;;;13.32;5.85;;;;;;;16.23;100.00;100872.56;1626295;87;21101;-92
2022/06/11 00:27:04;;;;;;;15.40;5.78;;;;;;;16.18;100.00;100877.52;1623333;87;21026;-92
2022/06/11 00:29:33;;;;;;;17.12;6.15;;;;;;;16.16;100.00;100878.91;1651842;85;21138;-92
2022/06/11 00:31:59;;;;;;;14.40;5.75;;;;;;;16.11;100.00;100872.42;1651525;85;21454;-92
2022/06/11 00:34:26;;;;;;;12.37;5.37;;;;;;;16.08;100.00;100872.19;1752170;81;20990;-92
2022/06/11 00:36:54;;;;;;;20.12;6.28;;;;;;;16.06;100.00;100876.58;1760925;80;21073;-92
2022/06/11 00:39:24;;;;;;;16.52;5.72;;;;;;;16.05;100.00;100879.02;1759668;81;21089;-93
2022/06/11 00:41:55;;;;;;;16.35;5.65;;;;;;;16.04;100.00;100881.48;1759639;81;21085;-92
2022/06/11 00:44:22;;;;;;;18.45;6.30;;;;;;;16.04;100.00;100877.96;1758906;80;20962;-93
2022/06/11 00:47:08;;;;;;;14.33;6.12;;;;;;;16.02;100.00;100876.88;1761168;81;21427;-93
2022/06/11 00:49:51;;;;;;;18.85;5.83;;;;;;;16.00;100.00;100880.45;1753617;80;20963;-92
2022/06/11 00:52:40;;;;;;;14.77;5.87;;;;;;;15.99;100.00;100876.65;1705869;82;21693;-93
2022/06/11 00:55:18;;;;;;;16.23;5.53;;;;;;;15.98;100.00;100879.12;1705047;83;21050;-93
2022/06/11 00:57:58;;;;;;;19.42;5.95;;;;;;;15.97;100.00;100880.20;1699970;82;21054;-92
2022/06/11 01:00:39;;;;;;;18.82;6.08;;;;;;;15.96;100.00;100879.95;1710944;83;21120;-92
2022/06/11 01:03:03;;;;;;;15.83;6.22;;;;;;;15.94;100.00;100884.85;1706730;83;21557;-93
2022/06/11 01:05:34;;;;;;;14.33;5.35;;;;;;;15.92;100.00;100888.43;1707203;83;21680;-92
2022/06/11 01:08:30;;;;;;;14.63;5.12;;;;;;;15.89;100.00;100887.90;1702127;83;21097;-92
2022/06/11 01:11:19;;;;;;;16.55;6.22;;;;;;;15.90;100.00;100888.70;1694589;83;21030;-94
2022/06/11 01:13:53;;;;;;;19.10;6.30;;;;;;;15.88;100.00;100891.72;1701818;82;21117;-92
2022/06/11 01:16:34;;;;;;;14.25;5.22;;;;;;;15.77;100.00;100883.41;1712320;83;21146;-92
2022/06/11 01:19:41;;;;;;;13.93;5.20;;;;;;;15.68;100.00;100896.00;1669761;84;21035;-93
2022/06/11 01:22:35;;;;;;;15.00;5.30;;;;;;;15.61;100.00;100892.20;1687219;84;21091;-92
2022/06/11 01:25:32;;;;;;;16.00;5.40;;;;;;;15.53;100.00;100896.92;1671932;84;21133;-91
2022/06/11 01:28:40;;;;;;;17.12;5.65;;;;;;;15.46;100.00;100895.07;1669155;84;22478;-93
2022/06/11 01:31:23;;;;;;;16.10;6.00;;;;;;;15.41;100.00;100893.75;1681629;84;21163;-93
2022/06/11 01:34:08;;;;;;;;;;;;;;;15.37;100.00;100897.59;1616053;86;21159;-92
2022/06/11 01:36:41;;;;;;;14.25;5.30;;;;;;;15.32;100.00;100897.63;1634560;86;20176;-92
2022/06/11 01:39:21;;;;;;;13.45;5.35;;;;;;;15.30;100.00;100897.66;1618181;86;21632;-94
2022/06/11 01:42:01;;;;;;;14.35;5.30;;;;;;;15.29;100.00;100898.19;1636906;87;21069;-93
2022/06/11 01:44:33;;;;;;;29.75;5.60;;;;;;;15.27;100.00;100898.23;1595761;88;21112;-93
2022/06/11 01:47:00;;;;;;;16.97;6.35;;;;;;;15.26;100.00;100893.88;1602113;88;21207;-93
2022/06/11 01:49:33;;;;;;;17.48;5.35;;;;;;;15.18;100.00;100893.41;1616714;87;21023;-93
2022/06/11 01:52:49;;;;;;;12.20;5.17;;;;;;;15.20;100.00;100901.25;1619344;86;21111;-93
2022/06/11 01:55:45;;;;;;;16.00;5.47;;;;;;;15.19;100.00;100905.07;1620149;86;21101;-93
2022/06/11 01:58:39;;;;;;;18.67;5.80;;;;;;;15.17;100.00;100907.25;1615152;87;21578;-92
2022/06/11 02:01:26;;;;;;;18.15;5.55;;;;;;;15.18;100.00;100906.98;1615899;87;21171;-92
2022/06/11 02:04:12;;;;;;;15.70;5.78;;;;;;;15.20;100.00;100902.61;1615732;87;21630;-92
2022/06/11 02:07:01;;;;;;;15.20;5.35;;;;;;;15.21;100.00;100913.75;1626818;86;21119;-93
2022/06/11 02:10:06;;;;;;;14.00;5.10;;;;;;;15.26;100.00;100913.69;1619589;87;21040;-93
2022/06/11 02:12:40;;;;;;;14.63;5.58;;;;;;;15.32;100.00;100913.91;1644382;85;21098;-93
2022/06/11 02:15:23;;;;;;;15.78;5.17;;;;;;;15.43;100.00;100914.66;1535072;90;21225;-92
2022/06/11 02:17:55;;;;;;;17.02;5.65;;;;;;;15.48;100.00;100917.34;1540229;91;21072;-93
2022/06/11 02:20:29;;;;;;;12.35;5.50;;;;;;;15.57;100.00;100922.97;1529128;91;21162;-92
2022/06/11 02:23:15;;;;;;;16.75;5.83;;;;;;;15.64;100.00;100920.16;1576523;88;21210;-92
2022/06/11 02:25:49;;;;;;;16.32;5.58;;;;;;;15.73;100.00;100920.39;1582561;88;21119;-93
2022/06/11 02:28:20;;;;;;;14.10;5.42;;;;;;;15.80;100.00;100920.08;1584036;89;21514;-93
2022/06/11 02:30:49;;;;;;;20.17;6.20;;;;;;;15.89;100.00;100923.23;1480382;95;21151;-92
2022/06/11 02:33:19;;;;;;;17.27;6.20;;;;;;;15.98;100.00;100929.41;1475328;95;21208;-92
2022/06/11 02:35:56;;;;;;;15.85;5.28;;;;;;;16.05;100.00;100925.23;1475356;94;21692;-92
2022/06/11 02:38:25;;;;;;;22.07;6.15;;;;;;;16.14;100.00;100930.84;1475920;95;21141;-92
2022/06/11 02:40:59;;;;;;;15.40;5.33;;;;;;;16.24;100.00;100927.23;1475511;94;21211;-92
2022/06/11 02:43:27;;;;;;;11.95;5.92;;;;;;;16.36;100.00;100928.98;1412698;98;21105;-90
2022/06/11 02:45:53;;;;;;;14.98;6.50;;;;;;;16.59;100.00;100939.59;1411229;99;21132;-91
2022/06/11 02:48:18;;;;;;;13.70;5.50;;;;;;;17.09;100.00;100936.47;1411138;100;21113;-92
2022/06/11 02:50:48;;;;;;;15.18;5.08;;;;;;;17.64;100.00;100938.86;1414513;98;21231;-91
2022/06/11 02:53:16;;;;;;;15.20;5.58;;;;;;;18.21;100.00;100933.80;1443929;96;21695;-91
2022/06/11 02:55:45;;;;;;;12.37;5.00;;;;;;;18.70;100.00;100934.95;1465035;96;21632;-92
2022/06/11 02:58:13;;;;;;;10.68;4.92;;;;;;;18.95;100.00;100925.44;1465625;96;21699;-91
2022/06/11 03:00:44;;;;;;;17.52;5.30;;;;;;;18.91;100.00;100932.05;1466203;97;21136;-90
2022/06/11 03:03:10;;;;;;;13.18;4.30;;;;;;;18.85;100.00;100934.66;1457711;96;21389;-92
2022/06/11 03:05:39;;;;;;;14.47;4.60;;;;;;;18.85;100.00;100927.82;1446231;96;21174;-91
2022/06/11 03:08:07;;;;;;;16.17;5.33;;;;;;;18.89;100.00;100929.41;1451555;96;21191;-90
2022/06/11 03:10:34;;;;;;;18.02;4.62;;;;;;;18.99;100.00;100927.23;1457268;96;21146;-90
2022/06/11 03:13:00;;;;;;;8.05;4.10;;;;;;;19.22;100.00;100930.00;1493333;93;23135;-91
2022/06/11 03:15:26;;;;;;;16.80;5.20;;;;;;;19.84;100.00;100927.38;1498333;92;21076;-90
2022/06/11 03:17:55;;;;;;;11.25;4.72;;;;;;;20.57;100.00;100920.19;1506297;92;21189;-90
2022/06/11 03:20:23;;;;;;;12.37;4.83;;;;;;;21.25;100.00;100917.23;1532322;87;21119;-91
2022/06/11 03:22:50;;;;;;;13.68;4.75;;;;;;;21.89;100.00;100921.17;1616984;87;21170;-91
2022/06/11 03:25:16;;;;;;;14.58;4.62;;;;;;;22.54;100.00;100925.98;1617505;87;21095;-93
2022/06/11 03:27:43;;;;;;;11.88;4.20;;;;;;;23.09;95.09;100923.02;1685473;80;21188;-91
2022/06/11 03:30:12;;;;;;;9.93;4.58;;;;;;;23.54;92.27;100921.47;1759242;81;21073;-91
2022/06/11 03:32:38;;;;;;;8.83;4.75;;;;;;;24.21;88.42;100913.91;1758794;80;21038;-91
2022/06/11 03:35:05;;;;;;;14.70;4.45;;;;;;;24.85;83.40;100918.66;1760844;81;20844;-89
2022/06/11 03:37:33;;;;;;;10.32;4.45;;;;;;;25.38;82.03;100911.16;1761359;80;20971;-91
2022/06/11 03:39:59;;;;;;;13.20;4.45;;;;;;;25.97;75.02;100912.86;1760961;80;21129;-91
2022/06/11 03:42:25;;;;;;;14.10;4.22;;;;;;;26.35;70.05;100913.59;1759232;80;21110;-91
2022/06/11 03:44:51;;;;;;;14.58;4.80;;;;;;;26.72;66.58;100914.06;1759824;81;20897;-90
2022/06/11 03:47:18;;;;;;;11.88;4.85;;;;;;;27.38;66.69;100915.61;1757930;81;21093;-90
2022/06/11 03:49:44;;;;;;;29.02;8.48;;;;;;;28.19;62.86;100916.06;1758865;81;20967;-90
2022/06/11 03:52:11;;;;;;;30.05;9.93;;;;;;;28.83;59.99;100912.85;1759215;80;21097;-89
2022/06/11 03:54:38;;;;;;;66.30;22.00;;;;;;;29.40;56.46;100912.15;1760879;81;20966;-90
2022/06/11 03:57:06;;;;;;;91.25;29.12;;;;;;;29.76;55.56;100920.06;1759937;80;21026;-90
2022/06/11 03:59:33;;;;;;;102.42;34.03;;;;;;;30.31;52.71;100918.75;1758083;81;21026;-88
2022/06/11 04:01:59;;;;;;;77.20;26.20;;;;;;;30.95;49.93;100923.90;1759372;81;21061;-89
2022/06/11 04:04:25;;;;;;;22.22;7.00;;;;;;;31.19;47.62;100922.39;1760408;81;21451;-90
2022/06/11 04:09:29;;;;;;;14.98;5.05;;;;;;;31.26;44.03;100933.54;1692812;83;21126;-89
2022/06/11 04:11:55;;;;;;;7.70;3.87;;;;;;;31.36;43.10;100937.00;1692529;83;21085;-90
2022/06/11 04:14:21;;;;;;;9.73;4.10;;;;;;;31.40;42.20;100932.22;1693811;83;20943;-90
2022/06/11 04:16:55;;;;;;;8.58;4.15;;;;;;;31.34;40.71;100940.73;1694252;83;21691;-90
2022/06/11 04:19:27;;;;;;;9.33;4.10;;;;;;;31.19;40.65;100937.11;1695069;83;21636;-89
2022/06/11 04:21:54;;;;;;;16.35;4.58;;;;;;;31.16;41.01;100935.11;1694304;83;21212;-88
2022/06/11 04:24:21;;;;;;;22.70;6.87;;;;;;;31.33;40.28;100936.36;1695332;83;21593;-90
2022/06/11 04:26:50;;;;;;;12.40;5.67;;;;;;;31.45;40.21;100932.44;1695527;83;20946;-89
2022/06/11 04:29:21;;;;;;;12.43;5.50;;;;;;;31.77;40.29;100936.67;1694664;83;21651;-89
2022/06/11 04:31:50;;;;;;;9.98;4.87;;;;;;;32.33;39.55;100932.30;1693741;83;20964;-89
2022/06/11 04:34:17;;;;;;;13.95;4.87;;;;;;;32.57;37.72;100933.47;1693701;83;21125;-86
2022/06/11 04:36:45;;;;;;;8.73;4.65;;;;;;;32.72;37.57;100941.20;1695772;83;21715;-87
2022/06/11 04:39:13;;;;;;;13.32;4.62;;;;;;;32.79;37.10;100943.95;1695735;83;21619;-90
2022/06/11 04:41:40;;;;;;;15.93;5.20;;;;;;;32.91;36.74;100944.72;1695427;83;22174;-89
2022/06/11 04:44:06;;;;;;;10.60;4.47;;;;;;;32.94;35.95;100943.91;1695662;83;20950;-88
2022/06/11 04:46:32;;;;;;;9.85;4.65;;;;;;;33.13;35.88;100940.67;1693949;83;21031;-90
2022/06/11 04:48:59;;;;;;;9.93;4.40;;;;;;;32.95;35.96;100942.12;1694816;83;21074;-91
2022/06/11 04:51:26;;;;;;;9.43;4.62;;;;;;;33.22;36.03;100934.03;1695459;83;21042;-88
2022/06/11 04:53:52;;;;;;;7.75;4.72;;;;;;;33.77;36.47;100940.91;1694833;83;21022;-91
2022/06/11 04:56:23;;;;;;;17.67;5.15;;;;;;;34.46;35.38;100941.11;1693878;83;20985;-87
2022/06/11 04:58:51;;;;;;;14.30;5.17;;;;;;;34.58;34.42;100940.00;1696105;83;22543;-89
2022/06/11 05:01:18;;;;;;;11.63;4.97;;;;;;;34.27;34.36;100939.69;1695370;83;21261;-89
2022/06/11 05:03:44;;;;;;;11.00;5.22;;;;;;;34.54;33.54;100943.45;1694826;83;21110;-85
2022/06/11 05:06:14;;;;;;;11.18;4.67;;;;;;;34.65;33.67;100950.34;1694442;83;21152;-85
2022/06/11 05:08:40;;;;;;;19.20;5.70;;;;;;;34.52;32.50;100955.63;1689740;83;21076;-88
2022/06/11 05:11:06;;;;;;;13.20;5.92;;;;;;;34.20;32.29;100948.16;1692643;83;21032;-88
2022/06/11 05:13:33;;;;;;;22.73;5.58;;;;;;;33.93;32.72;100952.34;1747626;80;21038;-88
2022/06/11 05:15:59;;;;;;;18.95;6.28;;;;;;;34.11;32.31;100952.23;1759718;80;21029;-88
2022/06/11 05:18:28;;;;;;;29.72;6.55;;;;;;;34.38;33.07;100954.38;1759334;80;21862;-89
2022/06/11 05:20:54;;;;;;;17.05;6.10;;;;;;;35.11;32.83;100953.20;1760698;80;21479;-89
2022/06/11 05:23:21;;;;;;;15.68;6.22;;;;;;;35.55;31.51;100950.62;1759428;80;20974;-90
2022/06/11 05:25:47;;;;;;;10.45;5.40;;;;;;;35.33;31.23;100949.52;1758751;80;21042;-88
2022/06/11 05:28:21;;;;;;;11.70;5.10;;;;;;;35.46;31.48;100948.32;1758350;81;21756;-89
2022/06/11 05:30:49;;;;;;;10.90;4.72;;;;;;;35.79;31.90;100955.05;1738983;81;21178;-90
2022/06/11 05:33:15;;;;;;;16.35;5.75;;;;;;;36.26;30.16;100962.09;1731652;81;21052;-86
2022/06/11 05:35:42;;;;;;;15.32;5.65;;;;;;;36.27;29.87;100960.08;1738404;81;21524;-88
2022/06/11 05:38:14;;;;;;;17.75;5.97;;;;;;;36.35;29.57;100966.54;1738744;82;21020;-90
2022/06/11 05:40:42;;;;;;;13.15;5.60;;;;;;;36.29;29.03;100972.47;1727749;81;21387;-89
2022/06/11 05:43:09;;;;;;;16.90;5.60;;;;;;;36.37;29.55;100964.72;1731337;81;21099;-86
2022/06/11 05:45:46;;;;;;;12.95;5.45;;;;;;;37.48;28.96;100967.53;1740746;82;21417;-89
2022/06/11 05:48:16;;;;;;;12.13;5.20;;;;;;;37.48;28.96;100967.53;1640494;84;21090;-89
2022/06/11 05:50:47;;;;;;;15.28;5.33;;;;;;;38.02;28.48;100954.22;1643761;84;21085;-90
2022/06/11 05:53:18;;;;;;;13.75;5.70;;;;;;;38.02;28.48;100954.22;1645723;84;21025;-89
2022/06/11 05:55:47;;;;;;;10.43;5.40;;;;;;;38.71;27.99;100971.70;1638337;84;21170;-87
2022/06/11 05:58:18;;;;;;;12.80;5.10;;;;;;;38.92;28.32;100977.99;1636226;85;21098;-88
2022/06/11 06:00:45;;;;;;;;;;;;;;;39.29;27.17;100975.86;1649150;84;20975;-92
2022/06/11 06:03:12;;;;;;;13.32;5.47;;;;;;;40.04;26.69;100974.11;1635698;86;20549;-90
2022/06/11 06:05:39;;;;;;;18.98;6.78;;;;;;;40.93;27.03;100968.75;1637848;84;21154;-90
2022/06/11 06:08:07;;;;;;;20.80;6.22;;;;;;;41.71;25.95;100975.42;1639404;86;21177;-89
2022/06/11 06:10:34;;;;;;;12.85;6.05;;;;;;;42.55;25.32;100961.57;1641134;85;21059;-90
2022/06/11 06:13:00;;;;;;;12.78;5.55;;;;;;;42.62;23.67;100960.62;1650630;84;21021;-89
2022/06/11 06:15:30;;;;;;;11.53;5.33;;;;;;;42.56;23.53;100960.30;1645884;84;20903;-89
2022/06/11 06:17:56;;;;;;;19.80;5.70;;;;;;;42.62;23.33;100957.80;1645844;84;21069;-88
2022/06/11 06:20:24;;;;;;;13.25;5.90;;;;;;;42.20;22.90;100957.61;1647842;84;21089;-86
2022/06/11 06:22:50;;;;;;;9.33;4.97;;;;;;;41.82;22.72;100960.84;1648941;84;21057;-88
2022/06/11 06:25:21;;;;;;;11.88;5.40;;;;;;;41.59;23.61;100962.97;1654755;84;21073;-90
2022/06/11 06:27:47;;;;;;;15.45;6.47;;;;;;;42.18;23.22;100964.37;1681205;83;21648;-89
2022/06/11 06:30:14;;;;;;;9.45;4.83;;;;;;;42.43;22.22;100960.48;1699688;83;21039;-90
2022/06/11 06:32:40;;;;;;;8.55;5.00;;;;;;;42.58;21.23;100964.23;1699026;83;21787;-89
2022/06/11 06:35:07;;;;;;;9.73;4.50;;;;;;;42.38;21.46;100959.69;1698849;83;20902;-89
2022/06/11 06:37:33;;;;;;;13.55;5.45;;;;;;;42.41;21.05;100961.58;1711625;81;21034;-90
2022/06/11 06:39:59;;;;;;;12.20;5.60;;;;;;;42.48;21.66;100963.30;1760006;81;20966;-88
2022/06/11 06:42:25;;;;;;;12.63;5.47;;;;;;;43.35;21.39;100958.10;1760206;80;21038;-90
2022/06/11 06:44:51;;;;;;;9.15;5.17;;;;;;;43.79;20.41;100964.67;1761616;81;21817;-90
2022/06/11 06:47:17;;;;;;;11.80;5.65;;;;;;;44.09;20.88;100966.38;1758907;81;20943;-90
2022/06/11 06:49:43;;;;;;;12.15;5.50;;;;;;;44.15;20.04;100957.97;1760035;81;20950;-88
2022/06/11 06:52:09;;;;;;;14.90;5.45;;;;;;;43.99;20.25;100964.89;1759209;80;21029;-90
2022/06/11 06:54:35;;;;;;;13.43;5.30;;;;;;;44.15;20.16;100963.04;1759099;80;20880;-89
2022/06/11 06:57:01;;;;;;;9.68;4.80;;;;;;;44.39;19.73;100965.86;1759477;80;21921;-89
2022/06/11 06:59:27;;;;;;;9.20;4.65;;;;;;;44.54;19.68;100967.95;1759284;81;20937;-91
2022/06/11 07:01:53;;;;;;;11.78;5.20;;;;;;;44.74;19.57;100966.64;1758959;80;20958;-87
2022/06/11 07:04:19;;;;;;;9.05;5.00;;;;;;;45.21;19.08;100967.72;1758746;80;20855;-89
2022/06/11 07:06:45;;;;;;;15.18;4.90;;;;;;;45.11;18.46;100961.98;1760253;81;20993;-89
2022/06/11 07:09:11;;;;;;;10.43;5.30;;;;;;;45.29;19.11;100963.84;1759205;81;21190;-87
2022/06/11 07:11:37;;;;;;;18.00;5.83;;;;;;;45.20;18.55;100958.27;1757562;80;21086;-88
2022/06/11 07:14:03;;;;;;;14.23;5.08;;;;;;;44.69;18.47;100961.63;1759469;80;21041;-89
2022/06/11 07:16:46;;;;;;;16.80;5.15;;;;;;;45.02;18.35;100964.29;1759081;81;21066;-86
2022/06/11 07:19:20;;;;;;;12.88;5.03;;;;;;;45.32;18.36;100959.36;1760782;80;21065;-89
2022/06/11 07:21:50;;;;;;;13.70;5.08;;;;;;;45.04;18.16;100960.33;1747776;82;21040;-85
2022/06/11 07:24:21;;;;;;;14.03;4.67;;;;;;;44.48;18.03;100967.03;1739876;80;21572;-86
2022/06/11 07:26:52;;;;;;;17.92;5.03;;;;;;;43.87;18.18;100961.63;1626518;87;26802;-86
2022/06/11 07:29:32;;;;;;;11.08;5.12;;;;;;;44.09;18.14;100966.38;1622164;87;37568;-86
2022/06/11 07:32:07;;;;;;;7.00;3.52;;;;;;;44.46;18.00;100962.48;1629547;87;21049;-88
2022/06/11 07:34:34;;;;;;;11.22;3.98;;;;;;;44.14;17.93;100961.45;1630332;87;21433;-88
2022/06/11 07:37:01;;;;;;;6.95;3.92;;;;;;;43.96;17.50;100958.75;1627310;87;21141;-90
2022/06/11 07:39:27;;;;;;;13.28;4.03;;;;;;;44.72;18.69;100959.23;1625990;87;21609;-91
2022/06/11 07:41:53;;;;;;;12.60;4.22;;;;;;;45.75;17.49;100964.02;1628420;87;21090;-85
2022/06/11 07:44:19;;;;;;;11.05;3.80;;;;;;;46.54;17.06;100955.67;1626127;87;20978;-89
2022/06/11 07:46:45;;;;;;;5.10;3.77;;;;;;;46.00;16.52;100947.52;1629498;87;21086;-89
2022/06/11 07:49:11;;;;;;;22.17;4.15;;;;;;;45.79;16.66;100948.14;1626314;87;21001;-88
2022/06/11 07:51:36;;;;;;;8.93;3.80;;;;;;;45.74;16.37;100950.27;1623872;87;21014;-87
2022/06/11 07:54:03;;;;;;;10.85;4.45;;;;;;;44.98;15.91;100946.64;1624775;87;21025;-87
2022/06/11 07:56:29;;;;;;;20.97;4.60;;;;;;;44.80;16.25;100943.38;1627452;87;21636;-89
2022/06/11 07:58:55;;;;;;;8.68;4.08;;;;;;;44.69;16.56;100936.03;1626906;87;21132;-89
2022/06/11 08:01:21;;;;;;;10.55;6.53;;;;;;;44.79;16.96;100936.73;1631002;88;21088;-87
2022/06/11 08:03:47;;;;;;;20.57;9.28;;;;;;;45.13;15.33;100945.87;1627605;87;21025;-86
2022/06/11 08:06:13;;;;;;;11.60;6.42;;;;;;;44.42;15.20;100946.41;1630527;88;20906;-86
2022/06/11 08:08:39;;;;;;;10.72;5.87;;;;;;;44.21;15.86;100943.23;1628016;86;21644;-87
2022/06/11 08:11:06;;;;;;;17.25;7.22;;;;;;;44.60;16.01;100940.40;1631931;87;21096;-89
2022/06/11 08:13:33;;;;;;;16.85;7.85;;;;;;;44.23;15.40;100935.66;1641078;86;21232;-86
2022/06/11 08:16:01;;;;;;;16.30;8.58;;;;;;;44.77;15.37;100935.83;1640953;86;21081;-85
2022/06/11 08:18:29;;;;;;;16.20;9.23;;;;;;;44.61;14.83;100945.58;1638363;86;21046;-89
2022/06/11 08:20:55;;;;;;;18.85;9.03;;;;;;;44.09;15.21;100940.80;1638542;86;20942;-88
2022/06/11 08:23:23;;;;;;;16.17;8.63;;;;;;;44.15;15.38;100943.15;1684484;80;21076;-85
2022/06/11 08:25:50;;;;;;;14.00;8.53;;;;;;;43.60;15.22;100946.34;1758757;80;20987;-88
2022/06/11 08:28:17;;;;;;;15.13;8.75;;;;;;;43.72;15.10;100939.63;1759607;80;20994;-89
2022/06/11 08:30:44;;;;;;;17.37;8.03;;;;;;;43.65;14.91;100943.45;1759954;80;21030;-90
2022/06/11 08:33:11;;;;;;;21.52;8.93;;;;;;;43.61;15.23;100933.70;1761832;80;21589;-90
2022/06/11 08:35:38;;;;;;;13.58;8.25;;;;;;;44.59;14.78;100933.13;1759511;80;21499;-89
2022/06/11 08:38:06;;;;;;;12.95;7.28;;;;;;;45.16;14.44;100930.02;1759540;80;21074;-87
2022/06/11 08:40:46;;;;;;;12.10;7.28;;;;;;;45.90;14.25;100919.82;1759842;80;21140;-87
2022/06/11 08:43:29;;;;;;;14.73;8.00;;;;;;;46.20;13.83;100926.77;1755339;81;21498;-90
2022/06/11 08:46:07;;;;;;;12.28;7.33;;;;;;;46.25;13.78;100936.67;1760116;80;20939;-89
2022/06/11 08:48:47;;;;;;;10.68;6.40;;;;;;;45.76;13.68;100929.97;1739644;81;21039;-86
2022/06/11 08:51:27;;;;;;;12.25;6.60;;;;;;;44.78;14.19;100920.96;1725862;82;21114;-85
2022/06/11 08:53:57;;;;;;;13.65;6.53;;;;;;;43.88;15.16;100914.91;1720630;82;21054;-86
2022/06/11 08:56:44;;;;;;;11.48;5.92;;;;;;;43.35;14.80;100916.31;1718487;81;21213;-89
2022/06/11 08:59:33;;;;;;;9.85;5.37;;;;;;;42.94;15.14;100920.72;1720812;82;21049;-89
2022/06/11 09:02:24;;;;;;;9.30;5.33;;;;;;;42.32;15.18;100917.02;1720521;82;21954;-89
2022/06/11 09:05:46;;;;;;;10.93;5.33;;;;;;;42.35;15.35;100910.41;1719623;82;21215;-88
2022/06/11 09:08:41;;;;;;;9.95;5.30;;;;;;;42.30;16.18;100907.39;1719120;82;28413;-89
2022/06/11 09:11:18;;;;;;;11.83;6.15;;;;;;;43.03;16.07;100901.60;1719841;82;21145;-85
2022/06/11 09:14:25;;;;;;;12.25;6.95;;;;;;;43.69;15.54;100914.27;1717536;82;21011;-86
2022/06/11 09:17:18;;;;;;;10.50;5.53;;;;;;;42.77;15.85;100908.33;1720582;81;21039;-88
2022/06/11 09:19:56;;;;;;;7.87;4.75;;;;;;;42.39;15.65;100900.35;1721084;81;22725;-87
2022/06/11 09:22:45;;;;;;;8.13;4.33;;;;;;;42.73;15.08;100903.44;1718326;81;21231;-85
2022/06/11 09:25:38;;;;;;;13.05;5.08;;;;;;;42.60;15.21;100905.66;1711814;81;21661;-89
2022/06/11 09:28:40;;;;;;;9.40;4.95;;;;;;;41.98;15.94;100894.82;1714514;82;21080;-89
2022/06/11 09:31:36;;;;;;;8.75;4.78;;;;;;;42.45;15.80;100889.14;1618258;87;21194;-92
2022/06/11 09:34:14;;;;;;;8.28;4.47;;;;;;;42.61;15.85;100885.97;1638110;87;21085;-91
2022/06/11 09:37:07;;;;;;;10.72;4.45;;;;;;;42.61;15.85;100885.97;1627573;87;21086;-86
2022/06/11 09:39:44;;;;;;;14.10;4.50;;;;;;;42.92;15.96;100883.52;1633685;87;21633;-88
2022/06/11 09:42:37;;;;;;;10.20;4.08;;;;;;;41.81;16.21;100889.27;1640599;87;21038;-85
2022/06/11 09:45:30;;;;;;;5.60;3.60;;;;;;;40.88;16.43;100894.41;1637825;87;21578;-87
2022/06/11 09:48:43;;;;;;;7.25;3.77;;;;;;;39.75;16.91;100889.59;1636033;87;21097;-92
2022/06/11 09:51:12;;;;;;;;;;;;;;;39.52;17.88;100887.91;1638926;87;21149;-90
2022/06/11 09:54:09;;;;;;;6.92;3.70;;;;;;;40.69;18.05;100880.03;1638674;85;20211;-90
2022/06/11 09:57:22;;;;;;;7.60;3.90;;;;;;;40.92;17.15;100883.77;1637721;86;21114;-88
2022/06/11 10:00:01;;;;;;;10.13;3.67;;;;;;;40.19;17.37;100884.06;1630736;87;21226;-91
2022/06/11 10:02:46;;;;;;;11.45;3.60;;;;;;;38.54;18.34;100880.03;1626454;87;21554;-89
2022/06/11 10:05:17;;;;;;;17.20;3.87;;;;;;;38.60;18.45;100879.65;1629273;87;21230;-88
2022/06/11 10:07:47;;;;;;;10.85;4.22;;;;;;;37.93;19.21;100866.97;1548128;92;21080;-89
2022/06/11 10:10:24;;;;;;;7.55;3.80;;;;;;;38.02;19.44;100868.37;1556234;90;21186;-92
2022/06/11 10:13:02;;;;;;;9.35;4.00;;;;;;;37.84;19.85;100874.45;1582377;90;21136;-87
2022/06/11 10:15:38;;;;;;;10.60;3.90;;;;;;;37.36;19.62;100874.59;1544133;90;21346;-89
2022/06/11 10:18:13;;;;;;;10.30;3.92;;;;;;;37.84;19.09;100866.79;1568772;90;21102;-90
2022/06/11 10:20:56;;;;;;;6.58;3.55;;;;;;;38.02;19.40;100871.97;1600887;87;21615;-87
2022/06/11 10:23:49;;;;;;;7.60;3.40;;;;;;;38.25;19.54;100861.09;1598544;88;21086;-89
2022/06/11 10:26:22;;;;;;;;;;;;;;;38.54;19.35;100857.49;1597768;89;22286;-89
2022/06/11 10:29:12;;;;;;;11.03;3.83;;;;;;;38.49;19.19;100861.64;1596381;89;20217;-90
2022/06/11 10:31:48;;;;;;;11.48;4.15;;;;;;;37.90;19.65;100855.16;1599170;89;21625;-88
2022/06/11 10:34:20;;;;;;;8.58;4.05;;;;;;;37.82;19.30;100864.23;1596896;89;21070;-90
2022/06/11 10:37:03;;;;;;;9.88;3.83;;;;;;;38.15;19.58;100854.53;1596406;89;21034;-94
2022/06/11 10:39:43;;;;;;;11.30;3.55;;;;;;;38.97;20.20;100841.49;1595986;89;21216;-90
2022/06/11 10:42:15;;;;;;;9.85;4.33;;;;;;;39.64;19.06;100843.36;1598684;89;20900;-88
2022/06/11 10:44:49;;;;;;;8.55;4.12;;;;;;;39.92;18.37;100846.48;1599118;89;21070;-91
2022/06/11 10:47:35;;;;;;;5.30;3.55;;;;;;;39.79;18.93;100848.55;1599016;88;21256;-88
2022/06/11 10:50:17;;;;;;;7.72;3.50;;;;;;;39.68;19.23;100846.87;1589199;89;21409;-86
2022/06/11 10:53:06;;;;;;;8.38;3.40;;;;;;;39.08;19.09;100848.21;1589690;89;21578;-88
2022/06/11 10:55:47;;;;;;;9.63;3.40;;;;;;;38.51;19.36;100845.72;1590363;89;21206;-89
2022/06/11 10:58:37;;;;;;;7.03;3.72;;;;;;;38.05;19.83;100844.97;1590853;89;21089;-88
2022/06/11 11:01:09;;;;;;;13.55;3.75;;;;;;;38.18;19.50;100832.52;1594114;89;21025;-87
2022/06/11 11:03:51;;;;;;;15.50;3.83;;;;;;;37.93;19.76;100841.64;1508490;89;21059;-87
2022/06/11 11:06:32;;;;;;;7.33;3.90;;;;;;;37.39;20.21;100850.63;1596307;88;21135;-92
2022/06/11 11:09:19;;;;;;;8.28;3.60;;;;;;;37.55;19.99;100847.66;1602010;88;22002;-92
2022/06/11 11:11:50;;;;;;;6.30;3.65;;;;;;;38.13;19.86;100841.51;1603404;88;21807;-92
2022/06/11 11:14:21;;;;;;;7.90;3.90;;;;;;;38.86;19.34;100838.24;1517415;92;21112;-89
2022/06/11 11:16:51;;;;;;;6.78;3.52;;;;;;;39.22;19.31;100850.58;1514869;93;21175;-92
2022/06/11 11:19:25;;;;;;;6.85;3.58;;;;;;;38.65;19.37;100848.08;1517788;93;21195;-90
2022/06/11 11:22:05;;;;;;;8.58;3.80;;;;;;;38.03;19.57;100837.57;1521366;93;21671;-89
2022/06/11 11:24:48;;;;;;;7.62;3.70;;;;;;;38.25;19.75;100830.74;1515950;93;21615;-91
2022/06/11 11:27:22;;;;;;;9.68;3.55;;;;;;;38.24;19.77;100831.36;1534307;92;21191;-89
2022/06/11 11:29:53;;;;;;;8.18;3.80;;;;;;;38.63;19.04;100827.42;1534321;92;21580;-88
2022/06/11 11:32:38;;;;;;;9.50;4.08;;;;;;;38.77;19.16;100819.75;1501890;95;22167;-91
2022/06/11 11:35:18;;;;;;;9.28;4.15;;;;;;;38.47;19.25;100822.48;1504776;94;22338;-86
2022/06/11 11:38:05;;;;;;;10.65;3.58;;;;;;;37.86;19.13;100824.94;1504121;94;21138;-87
2022/06/11 11:40:56;;;;;;;10.32;3.90;;;;;;;37.82;19.82;100820.00;1503993;94;21097;-93
2022/06/11 11:43:26;;;;;;;8.05;3.92;;;;;;;37.96;20.34;100818.86;1514735;93;21084;-93
2022/06/11 11:46:01;;;;;;;9.13;3.50;;;;;;;38.56;19.90;100810.74;1520097;94;21381;-95
2022/06/11 11:48:48;;;;;;;7.90;3.95;;;;;;;38.97;19.32;100808.29;1482863;94;21228;-93
2022/06/11 11:51:38;;;;;;;10.78;4.20;;;;;;;38.87;18.18;100810.22;1497017;94;21155;-93